createdAt,value
2022-11-30T00:01:17.102Z,4.80
2022-11-30T00:03:44.890Z,4.80
2022-11-30T00:06:15.637Z,4.70
2022-11-30T00:08:43.103Z,4.70
2022-11-30T00:11:12.655Z,4.60
2022-11-30T00:13:40.712Z,4.50
2022-11-30T00:16:08.869Z,4.30
2022-11-30T00:18:36.945Z,4.30
2022-11-30T00:21:08.880Z,4.20
2022-11-30T00:23:38.663Z,4.10
2022-11-30T00:26:09.085Z,4.10
2022-11-30T00:28:37.914Z,4.10
2022-11-30T00:31:14.059Z,4.10
2022-11-30T00:33:42.035Z,4.20
2022-11-30T00:36:13.286Z,4.20
2022-11-30T00:38:44.162Z,4.30
2022-11-30T00:41:12.256Z,4.30
2022-11-30T00:43:39.733Z,4.40
2022-11-30T00:46:09.409Z,4.40
2022-11-30T00:48:38.348Z,4.60
2022-11-30T00:51:07.228Z,4.50
2022-11-30T00:53:34.646Z,4.60
2022-11-30T00:56:01.938Z,4.70
2022-11-30T00:58:29.218Z,4.80
2022-11-30T01:00:56.699Z,4.90
2022-11-30T01:03:24.154Z,4.90
2022-11-30T01:05:51.424Z,4.90
2022-11-30T01:08:18.834Z,4.90
2022-11-30T01:10:47.736Z,4.90
2022-11-30T01:13:15.248Z,4.90
2022-11-30T01:15:44.349Z,4.90
2022-11-30T01:18:12.337Z,4.90
2022-11-30T01:20:43.592Z,5.00
2022-11-30T01:23:11.354Z,4.90
2022-11-30T01:25:39.413Z,5.00
2022-11-30T01:28:09.460Z,5.00
2022-11-30T01:30:36.849Z,5.00
2022-11-30T01:33:04.917Z,5.00
2022-11-30T01:35:32.594Z,5.00
2022-11-30T01:38:00.059Z,5.00
2022-11-30T01:40:27.345Z,5.10
2022-11-30T01:42:54.598Z,5.10
2022-11-30T01:45:21.972Z,5.10
2022-11-30T01:47:56.742Z,5.10
2022-11-30T01:50:30.651Z,5.10
2022-11-30T01:52:58.722Z,5.20
2022-11-30T01:55:42.326Z,5.20
2022-11-30T01:58:18.430Z,5.30
2022-11-30T02:00:48.671Z,5.30
2022-11-30T02:03:30.221Z,5.30
2022-11-30T02:05:58.019Z,5.20
2022-11-30T02:08:27.008Z,5.20
2022-11-30T02:10:58.231Z,5.10
2022-11-30T02:13:25.784Z,5.10
2022-11-30T02:16:02.141Z,5.00
2022-11-30T02:18:39.885Z,5.00
2022-11-30T02:21:33.283Z,5.00
2022-11-30T02:24:11.328Z,5.10
2022-11-30T02:27:03.858Z,5.10
2022-11-30T02:29:42.767Z,5.10
2022-11-30T02:32:22.880Z,5.10
2022-11-30T02:34:51.921Z,5.20
2022-11-30T02:37:20.611Z,5.20
2022-11-30T02:39:48.201Z,5.10
2022-11-30T02:42:15.958Z,5.10
2022-11-30T02:44:46.922Z,5.10
2022-11-30T02:47:46.800Z,5.00
2022-11-30T02:50:31.830Z,5.00
2022-11-30T02:53:00.008Z,5.00
2022-11-30T02:55:29.152Z,5.10
2022-11-30T02:57:56.369Z,5.10
2022-11-30T03:00:23.703Z,5.10
2022-11-30T03:02:51.407Z,5.20
2022-11-30T03:05:19.309Z,5.30
2022-11-30T03:07:46.649Z,5.30
2022-11-30T03:10:14.197Z,5.30
2022-11-30T03:12:41.581Z,5.30
2022-11-30T03:15:09.288Z,5.30
2022-11-30T03:17:36.747Z,5.30
2022-11-30T03:20:04.498Z,5.20
2022-11-30T03:22:31.768Z,5.20
2022-11-30T03:24:59.242Z,5.20
2022-11-30T03:27:26.633Z,5.20
2022-11-30T03:29:54.156Z,5.20
2022-11-30T03:32:21.557Z,5.20
2022-11-30T03:34:49.269Z,5.10
2022-11-30T03:37:16.719Z,5.10
2022-11-30T03:39:43.967Z,5.20
2022-11-30T03:42:11.233Z,5.20
2022-11-30T03:44:38.487Z,5.30
2022-11-30T03:47:05.907Z,5.30
2022-11-30T03:49:33.168Z,5.40
2022-11-30T03:52:00.765Z,5.40
2022-11-30T03:54:28.181Z,5.50
2022-11-30T03:56:55.799Z,5.50
2022-11-30T03:59:23.166Z,5.60
2022-11-30T04:01:50.472Z,5.60
2022-11-30T04:04:17.910Z,5.60
2022-11-30T04:06:45.138Z,5.60
2022-11-30T04:09:12.601Z,5.60
2022-11-30T04:11:40.005Z,5.50
2022-11-30T04:14:07.382Z,5.50
2022-11-30T04:16:34.653Z,5.50
2022-11-30T04:19:02.509Z,5.50
2022-11-30T04:21:30.237Z,5.50
2022-11-30T04:23:57.516Z,5.50
2022-11-30T04:26:24.914Z,5.50
2022-11-30T04:28:52.192Z,5.60
2022-11-30T04:31:19.605Z,5.60
2022-11-30T04:33:46.885Z,5.60
2022-11-30T04:36:19.515Z,5.60
2022-11-30T04:38:47.397Z,5.50
2022-11-30T04:41:14.784Z,5.50
2022-11-30T04:43:42.198Z,5.50
2022-11-30T04:46:09.629Z,5.40
2022-11-30T04:48:37.798Z,5.40
2022-11-30T04:51:08.040Z,5.40
2022-11-30T04:53:37.230Z,5.40
2022-11-30T04:56:09.998Z,5.40
2022-11-30T04:58:39.127Z,5.50
2022-11-30T05:01:07.181Z,5.50
2022-11-30T05:03:34.972Z,5.60
2022-11-30T05:06:03.245Z,5.60
2022-11-30T05:08:30.902Z,5.60
2022-11-30T05:10:58.356Z,5.60
2022-11-30T05:13:26.362Z,5.60
2022-11-30T05:15:54.257Z,5.60
2022-11-30T05:18:22.123Z,5.60
2022-11-30T05:20:50.828Z,5.60
2022-11-30T05:23:18.694Z,5.50
2022-11-30T05:25:47.124Z,5.50
2022-11-30T05:28:14.760Z,5.50
2022-11-30T05:30:43.157Z,5.60
2022-11-30T05:33:10.760Z,5.60
2022-11-30T05:35:39.057Z,5.60
2022-11-30T05:38:06.884Z,5.50
2022-11-30T05:40:34.291Z,5.60
2022-11-30T05:43:02.533Z,5.60
2022-11-30T05:45:30.864Z,5.50
2022-11-30T05:47:58.144Z,5.50
2022-11-30T05:50:25.540Z,5.50
2022-11-30T05:52:57.093Z,5.50
2022-11-30T05:55:25.095Z,5.50
2022-11-30T05:57:53.035Z,5.50
2022-11-30T06:00:22.057Z,5.40
2022-11-30T06:02:54.735Z,5.50
2022-11-30T06:05:22.116Z,5.50
2022-11-30T06:07:49.414Z,5.60
2022-11-30T06:10:16.932Z,5.60
2022-11-30T06:12:44.334Z,5.60
2022-11-30T06:15:12.201Z,5.70
2022-11-30T06:17:39.824Z,5.70
2022-11-30T06:20:08.454Z,5.60
2022-11-30T06:22:36.289Z,5.60
2022-11-30T06:25:04.615Z,5.70
2022-11-30T06:27:33.481Z,5.70
2022-11-30T06:30:01.522Z,5.70
2022-11-30T06:32:28.881Z,5.70
2022-11-30T06:34:56.158Z,5.80
2022-11-30T06:37:23.444Z,5.80
2022-11-30T06:40:05.868Z,5.80
2022-11-30T06:42:35.235Z,5.80
2022-11-30T06:45:02.646Z,5.80
2022-11-30T06:47:30.064Z,5.80
2022-11-30T06:49:57.594Z,5.80
2022-11-30T06:52:25.200Z,5.80
2022-11-30T06:54:52.587Z,5.90
2022-11-30T06:57:19.908Z,5.90
2022-11-30T06:59:47.537Z,6.00
2022-11-30T07:02:18.555Z,6.00
2022-11-30T07:04:46.548Z,6.10
2022-11-30T07:07:15.085Z,6.10
2022-11-30T07:09:42.497Z,6.10
2022-11-30T07:12:09.729Z,6.30
2022-11-30T07:14:37.161Z,6.30
2022-11-30T07:17:04.884Z,6.30
2022-11-30T07:19:36.162Z,6.30
2022-11-30T07:22:03.810Z,6.30
2022-11-30T07:24:49.868Z,6.40
2022-11-30T07:27:17.542Z,6.50
2022-11-30T07:29:44.810Z,6.60
2022-11-30T07:32:12.138Z,6.60
2022-11-30T07:34:40.077Z,6.60
2022-11-30T07:37:07.366Z,6.60
2022-11-30T07:39:34.834Z,6.70
2022-11-30T07:42:02.112Z,6.60
2022-11-30T07:44:29.698Z,6.70
2022-11-30T07:46:56.981Z,6.80
2022-11-30T07:49:24.611Z,6.90
2022-11-30T07:51:51.977Z,6.90
2022-11-30T07:54:19.425Z,7.00
2022-11-30T07:56:46.691Z,7.10
2022-11-30T07:59:14.087Z,7.10
2022-11-30T08:01:41.541Z,7.10
2022-11-30T08:04:09.416Z,7.10
2022-11-30T08:06:36.709Z,7.10
2022-11-30T08:09:04.812Z,7.10
2022-11-30T08:11:34.766Z,7.10
2022-11-30T08:14:03.401Z,7.10
2022-11-30T08:16:34.476Z,7.10
2022-11-30T08:19:01.784Z,7.20
2022-11-30T08:21:29.029Z,7.20
2022-11-30T08:23:57.140Z,7.20
2022-11-30T08:26:26.317Z,7.20
2022-11-30T08:28:54.965Z,7.20
2022-11-30T08:31:29.875Z,7.30
2022-11-30T08:33:59.578Z,7.40
2022-11-30T08:36:28.642Z,7.50
2022-11-30T08:38:58.564Z,7.70
2022-11-30T08:41:26.642Z,7.80
2022-11-30T08:43:54.659Z,7.90
2022-11-30T08:49:26.554Z,8.00
2022-11-30T08:54:45.941Z,8.20
2022-11-30T08:57:15.803Z,8.30
2022-11-30T08:59:43.637Z,8.30
2022-11-30T09:02:12.434Z,8.30
2022-11-30T09:04:40.085Z,8.40
2022-11-30T09:07:07.520Z,8.40
2022-11-30T09:09:35.450Z,8.50
2022-11-30T09:12:03.028Z,8.60
2022-11-30T09:14:30.598Z,8.60
2022-11-30T09:16:57.993Z,8.60
2022-11-30T09:19:26.134Z,8.60
2022-11-30T09:21:53.748Z,8.60
2022-11-30T09:24:21.446Z,8.70
2022-11-30T09:26:48.810Z,8.70
2022-11-30T09:29:16.960Z,8.90
2022-11-30T09:31:44.422Z,9.00
2022-11-30T09:34:12.383Z,9.10
2022-11-30T09:36:39.923Z,9.00
2022-11-30T09:39:09.418Z,9.00
2022-11-30T09:41:42.495Z,9.00
2022-11-30T09:44:21.771Z,9.10
2022-11-30T09:46:59.602Z,9.00
2022-11-30T09:49:47.765Z,9.00
2022-11-30T09:52:28.535Z,9.00
2022-11-30T09:54:57.164Z,9.10
2022-11-30T09:57:33.957Z,9.10
2022-11-30T10:00:10.860Z,9.10
2022-11-30T10:02:41.869Z,9.00
2022-11-30T10:05:28.958Z,9.10
2022-11-30T10:08:46.031Z,9.10
2022-11-30T10:11:54.874Z,9.10
2022-11-30T10:14:27.986Z,9.10
2022-11-30T10:17:14.232Z,9.10
2022-11-30T10:20:06.857Z,9.10
2022-11-30T10:22:34.110Z,9.00
2022-11-30T10:25:23.636Z,9.10
2022-11-30T10:27:52.569Z,9.10
2022-11-30T10:30:29.546Z,9.10
2022-11-30T10:33:02.183Z,9.20
2022-11-30T10:35:38.494Z,9.30
2022-11-30T10:38:55.880Z,9.40
2022-11-30T10:41:31.420Z,9.40
2022-11-30T10:44:04.516Z,9.40
2022-11-30T10:46:37.256Z,9.40
2022-11-30T10:49:16.969Z,9.50
2022-11-30T10:51:51.027Z,9.60
2022-11-30T10:54:21.298Z,9.60
2022-11-30T10:56:48.610Z,9.60
2022-11-30T10:59:24.244Z,9.60
2022-11-30T11:01:53.414Z,9.40
2022-11-30T11:04:27.848Z,9.50
2022-11-30T11:07:08.350Z,9.50
2022-11-30T11:09:50.827Z,9.50
2022-11-30T11:12:26.092Z,9.50
2022-11-30T11:15:22.676Z,9.30
2022-11-30T11:17:51.555Z,9.10
2022-11-30T11:20:29.790Z,9.10
2022-11-30T11:22:57.366Z,9.10
2022-11-30T11:25:37.667Z,9.00
2022-11-30T11:28:12.056Z,9.00
2022-11-30T11:30:39.882Z,9.00
2022-11-30T11:33:13.595Z,8.90
2022-11-30T11:35:45.923Z,8.80
2022-11-30T11:38:40.470Z,8.80
2022-11-30T11:41:21.208Z,8.80
2022-11-30T11:44:25.832Z,8.70
2022-11-30T11:46:58.935Z,8.70
2022-11-30T11:49:32.345Z,8.80
2022-11-30T11:52:02.564Z,8.90
2022-11-30T11:54:53.320Z,8.90
2022-11-30T11:57:27.152Z,8.90
2022-11-30T12:00:02.719Z,9.00
2022-11-30T12:02:58.660Z,9.00
2022-11-30T12:05:43.458Z,9.00
2022-11-30T12:08:19.648Z,9.00
2022-11-30T12:11:12.812Z,9.00
2022-11-30T12:13:42.585Z,9.10
2022-11-30T12:16:15.733Z,9.20
2022-11-30T12:19:14.627Z,9.20
2022-11-30T12:22:08.273Z,9.30
2022-11-30T12:24:41.491Z,9.30
2022-11-30T12:27:14.700Z,9.30
2022-11-30T12:30:11.373Z,9.30
2022-11-30T12:32:54.375Z,9.50
2022-11-30T12:35:52.867Z,9.70
2022-11-30T12:38:46.736Z,9.70
2022-11-30T12:41:31.503Z,9.70
2022-11-30T12:44:11.631Z,9.70
2022-11-30T12:46:38.889Z,9.60
2022-11-30T12:49:22.615Z,9.60
2022-11-30T12:51:49.810Z,9.60
2022-11-30T12:54:23.051Z,9.50
2022-11-30T12:57:13.085Z,9.50
2022-11-30T12:59:47.483Z,9.60
2022-11-30T13:02:34.474Z,9.50
2022-11-30T13:05:15.243Z,9.60
2022-11-30T13:07:49.653Z,9.50
2022-11-30T13:10:40.325Z,9.50
2022-11-30T13:13:15.092Z,9.40
2022-11-30T13:15:44.556Z,9.30
2022-11-30T13:18:20.911Z,9.10
2022-11-30T13:21:16.265Z,9.10
2022-11-30T13:23:55.466Z,9.20
2022-11-30T13:26:58.474Z,9.20
2022-11-30T13:29:59.018Z,9.20
2022-11-30T13:35:29.654Z,9.20
2022-11-30T13:41:09.012Z,9.20
2022-11-30T13:43:56.732Z,9.20
2022-11-30T13:46:24.709Z,9.10
2022-11-30T13:49:21.298Z,9.20
2022-11-30T13:52:07.048Z,9.10
2022-11-30T13:54:47.533Z,9.20
2022-11-30T13:57:18.330Z,9.10
2022-11-30T13:59:49.179Z,9.10
2022-11-30T14:02:36.805Z,9.10
2022-11-30T14:05:19.137Z,9.10
2022-11-30T14:08:06.663Z,9.10
2022-11-30T14:10:38.226Z,9.10
2022-11-30T14:13:29.767Z,9.00
2022-11-30T14:16:01.753Z,9.00
2022-11-30T14:18:40.562Z,9.00
2022-11-30T14:21:18.805Z,9.00
2022-11-30T14:23:56.871Z,9.00
2022-11-30T14:26:35.417Z,8.90
2022-11-30T14:29:02.695Z,8.90
2022-11-30T14:31:58.185Z,8.90
2022-11-30T14:34:51.882Z,8.80
2022-11-30T14:37:24.041Z,8.80
2022-11-30T14:39:56.658Z,8.80
2022-11-30T14:42:29.386Z,8.70
2022-11-30T14:44:57.660Z,8.70
2022-11-30T14:47:34.830Z,8.70
2022-11-30T14:50:06.096Z,8.60
2022-11-30T14:52:41.042Z,8.60
2022-11-30T14:55:18.154Z,8.60
2022-11-30T14:58:16.393Z,8.60
2022-11-30T15:00:45.251Z,8.60
2022-11-30T15:03:28.930Z,8.60
2022-11-30T15:06:05.203Z,8.60
2022-11-30T15:08:42.912Z,8.60
2022-11-30T15:11:13.229Z,8.60
2022-11-30T15:13:49.139Z,8.50
2022-11-30T15:16:25.687Z,8.50
2022-11-30T15:18:55.718Z,8.50
2022-11-30T15:21:31.791Z,8.50
2022-11-30T15:24:02.507Z,8.50
2022-11-30T15:26:38.076Z,8.50
2022-11-30T15:29:31.035Z,8.50
2022-11-30T15:32:01.143Z,8.50
2022-11-30T15:34:28.922Z,8.50
2022-11-30T15:36:58.505Z,8.50
2022-11-30T15:39:28.387Z,8.50
2022-11-30T15:41:57.928Z,8.50
2022-11-30T15:44:45.435Z,8.50
2022-11-30T15:47:35.950Z,8.50
2022-11-30T15:50:23.826Z,8.40
2022-11-30T15:52:51.928Z,8.40
2022-11-30T15:56:03.051Z,8.40
2022-11-30T15:58:46.681Z,8.40
2022-11-30T16:01:22.355Z,8.40
2022-11-30T16:03:55.692Z,8.30
2022-11-30T16:06:36.474Z,8.30
2022-11-30T16:09:18.122Z,8.30
2022-11-30T16:11:46.499Z,8.30
2022-11-30T16:14:16.637Z,8.30
2022-11-30T16:16:44.359Z,8.30
2022-11-30T16:19:11.695Z,8.30
2022-11-30T16:21:39.117Z,8.30
2022-11-30T16:24:06.887Z,8.30
2022-11-30T16:26:51.272Z,8.30
2022-11-30T16:29:19.927Z,8.30
2022-11-30T16:31:47.311Z,8.30
2022-11-30T16:34:14.677Z,8.30
2022-11-30T16:36:42.006Z,8.30
2022-11-30T16:39:12.353Z,8.30
2022-11-30T16:41:39.882Z,8.30
2022-11-30T16:44:14.075Z,8.20
2022-11-30T16:46:42.147Z,8.20
2022-11-30T16:49:09.584Z,8.20
2022-11-30T16:51:37.644Z,8.20
2022-11-30T16:54:05.640Z,8.20
2022-11-30T16:56:33.326Z,8.20
2022-11-30T16:59:00.638Z,8.20
2022-11-30T17:01:54.213Z,8.20
2022-11-30T17:04:24.522Z,8.30
2022-11-30T17:06:57.163Z,8.30
2022-11-30T17:09:30.081Z,8.30
2022-11-30T17:11:57.917Z,8.20
2022-11-30T17:14:25.488Z,8.20
2022-11-30T17:16:53.295Z,8.20
2022-11-30T17:19:20.891Z,8.20
2022-11-30T17:21:50.994Z,8.20
2022-11-30T17:24:18.548Z,8.20
2022-11-30T17:26:46.208Z,8.20
2022-11-30T17:29:13.520Z,8.20
2022-11-30T17:31:41.276Z,8.30
2022-11-30T17:34:09.484Z,8.30
2022-11-30T17:36:36.999Z,8.20
2022-11-30T17:39:08.668Z,8.20
2022-11-30T17:41:36.137Z,8.20
2022-11-30T17:44:04.300Z,8.20
2022-11-30T17:46:31.643Z,8.20
2022-11-30T17:48:58.976Z,8.20
2022-11-30T17:51:26.480Z,8.20
2022-11-30T17:53:53.956Z,8.20
2022-11-30T17:56:21.313Z,8.20
2022-11-30T17:58:49.527Z,8.20
2022-11-30T18:01:22.174Z,8.20
2022-11-30T18:03:50.555Z,8.20
2022-11-30T18:06:18.323Z,8.20
2022-11-30T18:08:46.168Z,8.20
2022-11-30T18:11:16.782Z,8.20
2022-11-30T18:13:44.387Z,8.20
2022-11-30T18:16:14.970Z,8.30
2022-11-30T18:18:47.750Z,8.30
2022-11-30T18:21:18.398Z,8.20
2022-11-30T18:23:46.720Z,8.30
2022-11-30T18:26:17.001Z,8.30
2022-11-30T18:28:44.940Z,8.20
2022-11-30T18:31:12.817Z,8.20
2022-11-30T18:33:40.423Z,8.20
2022-11-30T18:36:08.293Z,8.20
2022-11-30T18:38:38.513Z,8.30
2022-11-30T18:41:06.750Z,8.20
2022-11-30T18:43:34.996Z,8.20
2022-11-30T18:46:11.476Z,8.30
2022-11-30T18:48:40.548Z,8.30
2022-11-30T18:51:12.157Z,8.30
2022-11-30T18:53:39.844Z,8.30
2022-11-30T18:56:16.635Z,8.30
2022-11-30T18:58:45.238Z,8.30
2022-11-30T19:01:19.205Z,8.20
2022-11-30T19:04:08.086Z,8.30
2022-11-30T19:06:37.061Z,8.30
2022-11-30T19:09:10.634Z,8.30
2022-11-30T19:11:39.562Z,8.20
2022-11-30T19:14:07.637Z,8.20
2022-11-30T19:16:35.865Z,8.20
2022-11-30T19:19:07.634Z,8.20
2022-11-30T19:21:35.382Z,8.10
2022-11-30T19:24:02.918Z,8.10
2022-11-30T19:26:30.956Z,8.10
2022-11-30T19:28:58.489Z,8.10
2022-11-30T19:31:26.153Z,8.10
2022-11-30T19:33:55.746Z,8.10
2022-11-30T19:36:28.090Z,8.10
2022-11-30T19:38:58.100Z,8.10
2022-11-30T19:41:25.952Z,8.00
2022-11-30T19:44:03.969Z,8.00
2022-11-30T19:46:33.038Z,8.00
2022-11-30T19:49:01.459Z,8.00
2022-11-30T19:51:30.659Z,8.00
2022-11-30T19:54:01.286Z,8.00
2022-11-30T19:56:31.212Z,8.00
2022-11-30T19:59:04.517Z,8.00
2022-11-30T20:01:33.112Z,8.00
2022-11-30T20:04:00.461Z,8.00
2022-11-30T20:06:36.753Z,8.00
2022-11-30T20:09:06.788Z,8.00
2022-11-30T20:11:34.457Z,8.00
2022-11-30T20:14:02.113Z,8.00
2022-11-30T20:16:29.553Z,8.00
2022-11-30T20:19:01.963Z,8.00
2022-11-30T20:21:34.099Z,8.00
2022-11-30T20:24:05.042Z,8.00
2022-11-30T20:26:35.066Z,7.90
2022-11-30T20:29:04.117Z,7.90
2022-11-30T20:31:33.277Z,8.00
2022-11-30T20:34:01.040Z,8.00
2022-11-30T20:36:28.567Z,8.00
2022-11-30T20:38:56.189Z,8.00
2022-11-30T20:41:25.014Z,8.00
2022-11-30T20:43:52.938Z,8.00
2022-11-30T20:46:25.937Z,8.00
2022-11-30T20:48:54.196Z,7.90
2022-11-30T20:51:31.588Z,7.90
2022-11-30T20:54:02.107Z,7.70
2022-11-30T20:56:29.980Z,7.60
2022-11-30T20:59:01.155Z,7.60
2022-11-30T21:01:28.745Z,7.50
2022-11-30T21:03:56.099Z,7.40
2022-11-30T21:06:23.542Z,7.40
2022-11-30T21:08:51.246Z,7.40
2022-11-30T21:11:20.900Z,7.30
2022-11-30T21:13:50.416Z,7.20
2022-11-30T21:16:26.943Z,7.20
2022-11-30T21:18:55.807Z,7.20
2022-11-30T21:21:25.872Z,7.10
2022-11-30T21:23:53.902Z,7.10
2022-11-30T21:26:23.856Z,7.10
2022-11-30T21:28:53.840Z,7.10
2022-11-30T21:31:22.238Z,7.10
2022-11-30T21:33:53.110Z,7.10
2022-11-30T21:36:22.979Z,7.10
2022-11-30T21:39:04.415Z,7.10
2022-11-30T21:41:33.850Z,7.10
2022-11-30T21:44:01.308Z,7.10
2022-11-30T21:46:28.905Z,7.00
2022-11-30T21:48:56.208Z,7.00
2022-11-30T21:51:26.740Z,7.10
2022-11-30T21:53:59.603Z,7.00
2022-11-30T21:56:30.236Z,7.00
2022-11-30T21:58:58.158Z,7.10
2022-11-30T22:01:29.735Z,7.10
2022-11-30T22:04:02.454Z,7.10
2022-11-30T22:06:31.551Z,7.20
2022-11-30T22:09:07.968Z,7.20
2022-11-30T22:11:39.324Z,7.20
2022-11-30T22:14:10.446Z,7.20
2022-11-30T22:16:38.070Z,7.20
2022-11-30T22:19:06.759Z,7.20
2022-11-30T22:21:34.621Z,7.20
2022-11-30T22:24:04.871Z,7.20
2022-11-30T22:26:35.281Z,7.20
2022-11-30T22:29:07.756Z,7.10
2022-11-30T22:31:37.726Z,7.10
2022-11-30T22:34:05.776Z,7.10
2022-11-30T22:36:34.899Z,7.00
2022-11-30T22:39:08.008Z,6.90
2022-11-30T22:41:35.479Z,6.80
2022-11-30T22:44:03.199Z,6.70
2022-11-30T22:46:32.700Z,6.70
2022-11-30T22:49:01.925Z,6.80
2022-11-30T22:51:30.874Z,6.70
2022-11-30T22:53:59.204Z,6.70
2022-11-30T22:56:29.533Z,6.70
2022-11-30T22:59:01.628Z,6.60
2022-11-30T23:01:37.570Z,6.60
2022-11-30T23:04:11.792Z,6.50
2022-11-30T23:06:41.051Z,6.40
2022-11-30T23:09:12.427Z,6.40
2022-11-30T23:11:40.596Z,6.30
2022-11-30T23:14:09.083Z,6.30
2022-11-30T23:16:36.955Z,6.30
2022-11-30T23:19:05.857Z,6.20
2022-11-30T23:21:41.756Z,6.20
2022-11-30T23:24:16.135Z,6.20
2022-11-30T23:26:44.281Z,6.10
2022-11-30T23:29:13.630Z,6.10
2022-11-30T23:31:43.785Z,6.10
2022-11-30T23:34:14.299Z,6.00
2022-11-30T23:36:41.669Z,6.00
2022-11-30T23:39:11.780Z,6.00
2022-11-30T23:41:40.046Z,6.00
2022-11-30T23:44:08.299Z,6.00
2022-11-30T23:46:36.456Z,6.00
2022-11-30T23:49:04.493Z,6.00
2022-11-30T23:51:31.775Z,6.10
2022-11-30T23:53:59.210Z,6.10
2022-11-30T23:56:26.489Z,6.00
2022-11-30T23:58:53.799Z,6.00
